sensor_id;sensor_type;location;lat;lon;timestamp;P1;durP1;ratioP1;P2;durP2;ratioP2
29916;SDS011;16786;49.466;11.068;2022-10-29T00:00:59;9.85;;;5.00;;
29916;SDS011;16786;49.466;11.068;2022-10-29T00:03:26;7.95;;;4.80;;
29916;SDS011;16786;49.466;11.068;2022-10-29T00:05:54;10.43;;;5.20;;
29916;SDS011;16786;49.466;11.068;2022-10-29T00:08:22;17.80;;;8.45;;
29916;SDS011;16786;49.466;11.068;2022-10-29T00:10:50;13.40;;;6.65;;
29916;SDS011;16786;49.466;11.068;2022-10-29T00:13:17;10.23;;;5.80;;
29916;SDS011;16786;49.466;11.068;2022-10-29T00:15:45;10.75;;;6.05;;
29916;SDS011;16786;49.466;11.068;2022-10-29T00:18:12;8.30;;;5.22;;
29916;SDS011;16786;49.466;11.068;2022-10-29T00:20:40;13.93;;;5.80;;
29916;SDS011;16786;49.466;11.068;2022-10-29T00:23:07;16.25;;;5.88;;
29916;SDS011;16786;49.466;11.068;2022-10-29T00:25:34;8.98;;;4.70;;
29916;SDS011;16786;49.466;11.068;2022-10-29T00:28:02;9.65;;;4.80;;
29916;SDS011;16786;49.466;11.068;2022-10-29T00:30:29;11.80;;;5.28;;
29916;SDS011;16786;49.466;11.068;2022-10-29T00:32:56;8.85;;;4.47;;
29916;SDS011;16786;49.466;11.068;2022-10-29T00:35:24;8.55;;;4.53;;
29916;SDS011;16786;49.466;11.068;2022-10-29T00:37:51;11.18;;;4.88;;
29916;SDS011;16786;49.466;11.068;2022-10-29T00:40:19;9.23;;;5.07;;
29916;SDS011;16786;49.466;11.068;2022-10-29T00:42:46;10.30;;;5.05;;
29916;SDS011;16786;49.466;11.068;2022-10-29T00:45:18;8.13;;;5.20;;
29916;SDS011;16786;49.466;11.068;2022-10-29T00:47:48;9.40;;;5.20;;
29916;SDS011;16786;49.466;11.068;2022-10-29T00:50:18;10.65;;;5.70;;
29916;SDS011;16786;49.466;11.068;2022-10-29T00:52:49;8.23;;;5.18;;
29916;SDS011;16786;49.466;11.068;2022-10-29T00:55:17;9.75;;;5.30;;
29916;SDS011;16786;49.466;11.068;2022-10-29T00:57:48;9.95;;;4.75;;
29916;SDS011;16786;49.466;11.068;2022-10-29T01:00:17;10.60;;;5.10;;
29916;SDS011;16786;49.466;11.068;2022-10-29T01:02:46;10.25;;;5.30;;
29916;SDS011;16786;49.466;11.068;2022-10-29T01:05:20;9.77;;;5.10;;
29916;SDS011;16786;49.466;11.068;2022-10-29T01:07:50;9.27;;;4.72;;
29916;SDS011;16786;49.466;11.068;2022-10-29T01:10:18;12.30;;;5.38;;
29916;SDS011;16786;49.466;11.068;2022-10-29T01:15:41;8.60;;;4.82;;
29916;SDS011;16786;49.466;11.068;2022-10-29T01:18:37;9.68;;;4.80;;
29916;SDS011;16786;49.466;11.068;2022-10-29T01:21:18;12.25;;;4.95;;
29916;SDS011;16786;49.466;11.068;2022-10-29T01:32:13;13.80;;;5.30;;
29916;SDS011;16786;49.466;11.068;2022-10-29T01:35:56;9.32;;;4.78;;
29916;SDS011;16786;49.466;11.068;2022-10-29T01:43:04;10.43;;;4.72;;
29916;SDS011;16786;49.466;11.068;2022-10-29T01:45:44;9.63;;;4.57;;
29916;SDS011;16786;49.466;11.068;2022-10-29T01:48:21;12.55;;;7.05;;
29916;SDS011;16786;49.466;11.068;2022-10-29T01:50:59;13.70;;;6.35;;
29916;SDS011;16786;49.466;11.068;2022-10-29T01:53:33;8.65;;;5.03;;
29916;SDS011;16786;49.466;11.068;2022-10-29T01:56:03;11.10;;;5.18;;
29916;SDS011;16786;49.466;11.068;2022-10-29T01:58:30;8.38;;;4.50;;
29916;SDS011;16786;49.466;11.068;2022-10-29T02:01:08;10.52;;;4.88;;
29916;SDS011;16786;49.466;11.068;2022-10-29T02:09:32;10.13;;;5.00;;
29916;SDS011;16786;49.466;11.068;2022-10-29T02:15:04;9.75;;;4.90;;
29916;SDS011;16786;49.466;11.068;2022-10-29T02:17:32;8.90;;;4.60;;
29916;SDS011;16786;49.466;11.068;2022-10-29T02:20:04;9.68;;;4.25;;
29916;SDS011;16786;49.466;11.068;2022-10-29T02:22:34;10.60;;;4.40;;
29916;SDS011;16786;49.466;11.068;2022-10-29T02:25:01;10.95;;;5.07;;
29916;SDS011;16786;49.466;11.068;2022-10-29T02:27:29;11.27;;;5.03;;
29916;SDS011;16786;49.466;11.068;2022-10-29T02:29:57;12.80;;;5.30;;
29916;SDS011;16786;49.466;11.068;2022-10-29T02:32:24;9.07;;;4.95;;
29916;SDS011;16786;49.466;11.068;2022-10-29T02:34:51;10.50;;;4.63;;
29916;SDS011;16786;49.466;11.068;2022-10-29T02:37:19;9.73;;;4.88;;
29916;SDS011;16786;49.466;11.068;2022-10-29T02:39:46;9.20;;;4.80;;
29916;SDS011;16786;49.466;11.068;2022-10-29T02:42:13;11.38;;;4.13;;
29916;SDS011;16786;49.466;11.068;2022-10-29T02:44:40;9.27;;;4.60;;
29916;SDS011;16786;49.466;11.068;2022-10-29T02:47:08;9.43;;;4.63;;
29916;SDS011;16786;49.466;11.068;2022-10-29T02:49:35;8.30;;;4.65;;
29916;SDS011;16786;49.466;11.068;2022-10-29T02:52:02;10.40;;;5.05;;
29916;SDS011;16786;49.466;11.068;2022-10-29T02:54:30;10.57;;;4.90;;
29916;SDS011;16786;49.466;11.068;2022-10-29T02:56:57;12.02;;;5.00;;
29916;SDS011;16786;49.466;11.068;2022-10-29T02:59:24;10.88;;;4.90;;
29916;SDS011;16786;49.466;11.068;2022-10-29T03:01:52;12.88;;;5.40;;
29916;SDS011;16786;49.466;11.068;2022-10-29T03:04:19;10.07;;;5.28;;
29916;SDS011;16786;49.466;11.068;2022-10-29T03:06:47;8.68;;;5.05;;
29916;SDS011;16786;49.466;11.068;2022-10-29T03:09:14;13.25;;;5.05;;
29916;SDS011;16786;49.466;11.068;2022-10-29T03:11:41;8.18;;;4.95;;
29916;SDS011;16786;49.466;11.068;2022-10-29T03:14:08;11.73;;;5.68;;
29916;SDS011;16786;49.466;11.068;2022-10-29T03:16:36;15.43;;;4.85;;
29916;SDS011;16786;49.466;11.068;2022-10-29T03:19:03;11.45;;;5.10;;
29916;SDS011;16786;49.466;11.068;2022-10-29T03:21:30;8.13;;;4.65;;
29916;SDS011;16786;49.466;11.068;2022-10-29T03:23:57;11.27;;;4.85;;
29916;SDS011;16786;49.466;11.068;2022-10-29T03:26:25;9.98;;;5.30;;
29916;SDS011;16786;49.466;11.068;2022-10-29T03:28:53;10.13;;;4.78;;
29916;SDS011;16786;49.466;11.068;2022-10-29T03:31:21;9.32;;;4.95;;
29916;SDS011;16786;49.466;11.068;2022-10-29T03:33:48;11.13;;;5.60;;
29916;SDS011;16786;49.466;11.068;2022-10-29T03:36:16;12.27;;;5.38;;
29916;SDS011;16786;49.466;11.068;2022-10-29T03:38:43;10.93;;;6.25;;
29916;SDS011;16786;49.466;11.068;2022-10-29T03:41:11;10.27;;;4.60;;
29916;SDS011;16786;49.466;11.068;2022-10-29T03:43:38;10.10;;;5.80;;
29916;SDS011;16786;49.466;11.068;2022-10-29T03:46:05;11.40;;;5.20;;
29916;SDS011;16786;49.466;11.068;2022-10-29T03:48:33;11.35;;;5.72;;
29916;SDS011;16786;49.466;11.068;2022-10-29T03:51:01;10.93;;;5.60;;
29916;SDS011;16786;49.466;11.068;2022-10-29T03:53:34;12.82;;;5.57;;
29916;SDS011;16786;49.466;11.068;2022-10-29T03:56:02;9.40;;;4.97;;
29916;SDS011;16786;49.466;11.068;2022-10-29T03:58:30;10.10;;;5.53;;
29916;SDS011;16786;49.466;11.068;2022-10-29T04:01:01;9.07;;;5.55;;
29916;SDS011;16786;49.466;11.068;2022-10-29T04:03:31;13.43;;;6.45;;
29916;SDS011;16786;49.466;11.068;2022-10-29T04:06:01;13.18;;;6.40;;
29916;SDS011;16786;49.466;11.068;2022-10-29T04:08:34;11.73;;;5.20;;
29916;SDS011;16786;49.466;11.068;2022-10-29T04:11:01;9.95;;;5.78;;
29916;SDS011;16786;49.466;11.068;2022-10-29T04:13:29;11.18;;;5.40;;
29916;SDS011;16786;49.466;11.068;2022-10-29T04:15:56;9.88;;;5.28;;
29916;SDS011;16786;49.466;11.068;2022-10-29T04:18:23;10.95;;;5.40;;
29916;SDS011;16786;49.466;11.068;2022-10-29T04:20:51;9.00;;;5.47;;
29916;SDS011;16786;49.466;11.068;2022-10-29T04:23:39;9.52;;;5.55;;
29916;SDS011;16786;49.466;11.068;2022-10-29T04:26:26;12.88;;;5.65;;
29916;SDS011;16786;49.466;11.068;2022-10-29T04:29:14;13.05;;;5.18;;
29916;SDS011;16786;49.466;11.068;2022-10-29T04:31:41;11.60;;;5.60;;
29916;SDS011;16786;49.466;11.068;2022-10-29T04:34:08;10.85;;;5.78;;
29916;SDS011;16786;49.466;11.068;2022-10-29T04:36:36;9.85;;;5.85;;
29916;SDS011;16786;49.466;11.068;2022-10-29T04:39:03;10.35;;;5.88;;
29916;SDS011;16786;49.466;11.068;2022-10-29T04:41:30;11.98;;;6.25;;
29916;SDS011;16786;49.466;11.068;2022-10-29T04:43:58;9.13;;;5.78;;
29916;SDS011;16786;49.466;11.068;2022-10-29T04:46:25;11.05;;;5.75;;
29916;SDS011;16786;49.466;11.068;2022-10-29T04:48:52;12.48;;;5.70;;
29916;SDS011;16786;49.466;11.068;2022-10-29T04:51:20;9.90;;;5.53;;
29916;SDS011;16786;49.466;11.068;2022-10-29T04:53:50;11.13;;;5.15;;
29916;SDS011;16786;49.466;11.068;2022-10-29T04:56:17;12.85;;;5.40;;
29916;SDS011;16786;49.466;11.068;2022-10-29T04:58:44;9.63;;;5.65;;
29916;SDS011;16786;49.466;11.068;2022-10-29T05:01:12;12.88;;;6.05;;
29916;SDS011;16786;49.466;11.068;2022-10-29T05:03:39;12.68;;;6.07;;
29916;SDS011;16786;49.466;11.068;2022-10-29T05:06:07;13.45;;;6.13;;
29916;SDS011;16786;49.466;11.068;2022-10-29T05:08:34;13.02;;;6.47;;
29916;SDS011;16786;49.466;11.068;2022-10-29T05:11:02;16.75;;;7.35;;
29916;SDS011;16786;49.466;11.068;2022-10-29T05:13:30;12.05;;;6.68;;
29916;SDS011;16786;49.466;11.068;2022-10-29T05:15:58;10.43;;;6.05;;
29916;SDS011;16786;49.466;11.068;2022-10-29T05:18:26;12.98;;;6.22;;
29916;SDS011;16786;49.466;11.068;2022-10-29T05:20:53;13.13;;;5.90;;
29916;SDS011;16786;49.466;11.068;2022-10-29T05:23:22;9.82;;;5.93;;
29916;SDS011;16786;49.466;11.068;2022-10-29T05:25:49;14.90;;;6.55;;
29916;SDS011;16786;49.466;11.068;2022-10-29T05:28:19;11.45;;;5.38;;
29916;SDS011;16786;49.466;11.068;2022-10-29T05:30:48;10.85;;;6.07;;
29916;SDS011;16786;49.466;11.068;2022-10-29T05:33:18;11.55;;;6.03;;
29916;SDS011;16786;49.466;11.068;2022-10-29T05:35:47;16.00;;;6.47;;
29916;SDS011;16786;49.466;11.068;2022-10-29T05:38:15;18.30;;;6.35;;
29916;SDS011;16786;49.466;11.068;2022-10-29T05:40:42;13.70;;;6.18;;
29916;SDS011;16786;49.466;11.068;2022-10-29T05:43:11;10.60;;;5.97;;
29916;SDS011;16786;49.466;11.068;2022-10-29T05:45:40;9.15;;;5.60;;
29916;SDS011;16786;49.466;11.068;2022-10-29T05:48:08;15.90;;;5.90;;
29916;SDS011;16786;49.466;11.068;2022-10-29T05:50:37;11.10;;;5.85;;
29916;SDS011;16786;49.466;11.068;2022-10-29T05:53:05;14.52;;;6.28;;
29916;SDS011;16786;49.466;11.068;2022-10-29T05:55:36;11.88;;;6.32;;
29916;SDS011;16786;49.466;11.068;2022-10-29T05:58:04;12.07;;;6.78;;
29916;SDS011;16786;49.466;11.068;2022-10-29T06:00:34;11.02;;;5.95;;
29916;SDS011;16786;49.466;11.068;2022-10-29T06:03:03;11.27;;;5.88;;
29916;SDS011;16786;49.466;11.068;2022-10-29T06:05:39;12.95;;;6.15;;
29916;SDS011;16786;49.466;11.068;2022-10-29T06:08:06;11.43;;;5.47;;
29916;SDS011;16786;49.466;11.068;2022-10-29T06:10:34;10.23;;;6.07;;
29916;SDS011;16786;49.466;11.068;2022-10-29T06:13:01;11.27;;;5.72;;
29916;SDS011;16786;49.466;11.068;2022-10-29T06:15:34;18.40;;;10.18;;
29916;SDS011;16786;49.466;11.068;2022-10-29T06:18:01;14.10;;;6.95;;
29916;SDS011;16786;49.466;11.068;2022-10-29T06:20:29;12.95;;;7.00;;
29916;SDS011;16786;49.466;11.068;2022-10-29T06:22:57;15.57;;;7.60;;
29916;SDS011;16786;49.466;11.068;2022-10-29T06:25:26;11.75;;;5.75;;
29916;SDS011;16786;49.466;11.068;2022-10-29T06:27:57;14.02;;;5.97;;
29916;SDS011;16786;49.466;11.068;2022-10-29T06:32:53;14.93;;;5.95;;
29916;SDS011;16786;49.466;11.068;2022-10-29T06:35:21;13.57;;;6.55;;
29916;SDS011;16786;49.466;11.068;2022-10-29T06:37:48;14.13;;;8.05;;
29916;SDS011;16786;49.466;11.068;2022-10-29T06:40:16;16.10;;;8.77;;
29916;SDS011;16786;49.466;11.068;2022-10-29T06:42:44;12.88;;;6.68;;
29916;SDS011;16786;49.466;11.068;2022-10-29T06:45:11;12.57;;;5.95;;
29916;SDS011;16786;49.466;11.068;2022-10-29T06:47:39;14.05;;;6.90;;
29916;SDS011;16786;49.466;11.068;2022-10-29T06:50:08;12.10;;;5.55;;
29916;SDS011;16786;49.466;11.068;2022-10-29T06:52:37;14.13;;;6.65;;
29916;SDS011;16786;49.466;11.068;2022-10-29T06:55:05;18.83;;;7.88;;
29916;SDS011;16786;49.466;11.068;2022-10-29T06:57:33;13.68;;;6.40;;
29916;SDS011;16786;49.466;11.068;2022-10-29T07:00:01;14.20;;;6.30;;
29916;SDS011;16786;49.466;11.068;2022-10-29T07:02:34;17.75;;;9.18;;
29916;SDS011;16786;49.466;11.068;2022-10-29T07:05:01;20.20;;;7.70;;
29916;SDS011;16786;49.466;11.068;2022-10-29T07:07:28;15.07;;;7.25;;
29916;SDS011;16786;49.466;11.068;2022-10-29T07:09:56;11.40;;;5.90;;
29916;SDS011;16786;49.466;11.068;2022-10-29T07:12:24;12.05;;;5.55;;
29916;SDS011;16786;49.466;11.068;2022-10-29T07:14:51;11.98;;;5.40;;
29916;SDS011;16786;49.466;11.068;2022-10-29T07:17:18;9.38;;;5.60;;
29916;SDS011;16786;49.466;11.068;2022-10-29T07:19:45;11.93;;;6.40;;
29916;SDS011;16786;49.466;11.068;2022-10-29T07:22:13;13.90;;;6.45;;
29916;SDS011;16786;49.466;11.068;2022-10-29T07:24:40;11.20;;;6.28;;
29916;SDS011;16786;49.466;11.068;2022-10-29T07:27:07;12.73;;;7.43;;
29916;SDS011;16786;49.466;11.068;2022-10-29T07:29:35;13.32;;;6.38;;
29916;SDS011;16786;49.466;11.068;2022-10-29T07:32:02;12.40;;;6.20;;
29916;SDS011;16786;49.466;11.068;2022-10-29T07:34:29;13.25;;;6.15;;
29916;SDS011;16786;49.466;11.068;2022-10-29T07:36:56;12.25;;;6.18;;
29916;SDS011;16786;49.466;11.068;2022-10-29T07:39:24;14.25;;;8.00;;
29916;SDS011;16786;49.466;11.068;2022-10-29T07:41:51;16.13;;;7.50;;
29916;SDS011;16786;49.466;11.068;2022-10-29T07:44:24;19.25;;;7.10;;
29916;SDS011;16786;49.466;11.068;2022-10-29T07:46:51;13.55;;;6.45;;
29916;SDS011;16786;49.466;11.068;2022-10-29T07:49:19;13.13;;;6.47;;
29916;SDS011;16786;49.466;11.068;2022-10-29T07:51:46;14.55;;;8.82;;
29916;SDS011;16786;49.466;11.068;2022-10-29T07:54:14;10.75;;;6.18;;
29916;SDS011;16786;49.466;11.068;2022-10-29T07:56:41;13.02;;;8.18;;
29916;SDS011;16786;49.466;11.068;2022-10-29T07:59:13;12.93;;;6.95;;
29916;SDS011;16786;49.466;11.068;2022-10-29T08:01:41;15.20;;;6.15;;
29916;SDS011;16786;49.466;11.068;2022-10-29T08:04:08;10.90;;;6.38;;
29916;SDS011;16786;49.466;11.068;2022-10-29T08:06:36;17.15;;;9.05;;
29916;SDS011;16786;49.466;11.068;2022-10-29T08:09:04;15.02;;;9.10;;
29916;SDS011;16786;49.466;11.068;2022-10-29T08:11:32;14.45;;;6.68;;
29916;SDS011;16786;49.466;11.068;2022-10-29T08:13:59;15.30;;;5.90;;
29916;SDS011;16786;49.466;11.068;2022-10-29T08:16:26;9.77;;;6.30;;
29916;SDS011;16786;49.466;11.068;2022-10-29T08:18:54;14.38;;;6.63;;
29916;SDS011;16786;49.466;11.068;2022-10-29T08:21:21;10.13;;;5.70;;
29916;SDS011;16786;49.466;11.068;2022-10-29T08:23:49;17.52;;;6.80;;
29916;SDS011;16786;49.466;11.068;2022-10-29T08:26:18;14.13;;;6.85;;
29916;SDS011;16786;49.466;11.068;2022-10-29T08:28:45;15.82;;;8.27;;
29916;SDS011;16786;49.466;11.068;2022-10-29T08:31:13;14.13;;;6.45;;
29916;SDS011;16786;49.466;11.068;2022-10-29T08:33:40;11.50;;;7.20;;
29916;SDS011;16786;49.466;11.068;2022-10-29T08:36:07;16.30;;;6.45;;
29916;SDS011;16786;49.466;11.068;2022-10-29T08:38:34;12.73;;;6.55;;
29916;SDS011;16786;49.466;11.068;2022-10-29T08:46:48;17.25;;;8.40;;
29916;SDS011;16786;49.466;11.068;2022-10-29T08:49:23;18.30;;;9.80;;
29916;SDS011;16786;49.466;11.068;2022-10-29T08:54:32;21.92;;;9.55;;
29916;SDS011;16786;49.466;11.068;2022-10-29T08:57:04;10.75;;;6.63;;
29916;SDS011;16786;49.466;11.068;2022-10-29T08:59:48;15.95;;;6.40;;
29916;SDS011;16786;49.466;11.068;2022-10-29T09:02:23;12.23;;;6.50;;
29916;SDS011;16786;49.466;11.068;2022-10-29T09:04:51;13.40;;;7.68;;
29916;SDS011;16786;49.466;11.068;2022-10-29T09:26:53;20.15;;;8.82;;
29916;SDS011;16786;49.466;11.068;2022-10-29T09:32:04;16.35;;;8.93;;
29916;SDS011;16786;49.466;11.068;2022-10-29T09:34:55;15.97;;;10.67;;
29916;SDS011;16786;49.466;11.068;2022-10-29T09:40:36;16.05;;;9.43;;
29916;SDS011;16786;49.466;11.068;2022-10-29T09:43:17;12.40;;;7.60;;
29916;SDS011;16786;49.466;11.068;2022-10-29T09:48:48;19.08;;;7.60;;
29916;SDS011;16786;49.466;11.068;2022-10-29T09:54:04;12.05;;;7.00;;
29916;SDS011;16786;49.466;11.068;2022-10-29T09:56:31;13.48;;;6.88;;
29916;SDS011;16786;49.466;11.068;2022-10-29T09:59:21;14.90;;;7.70;;
29916;SDS011;16786;49.466;11.068;2022-10-29T10:02:02;19.13;;;6.75;;
29916;SDS011;16786;49.466;11.068;2022-10-29T10:04:46;12.93;;;7.03;;
29916;SDS011;16786;49.466;11.068;2022-10-29T10:07:17;16.05;;;6.60;;
29916;SDS011;16786;49.466;11.068;2022-10-29T10:12:42;16.15;;;6.68;;
29916;SDS011;16786;49.466;11.068;2022-10-29T10:15:33;15.00;;;7.82;;
29916;SDS011;16786;49.466;11.068;2022-10-29T10:18:03;13.82;;;8.10;;
29916;SDS011;16786;49.466;11.068;2022-10-29T10:23:21;13.15;;;8.63;;
29916;SDS011;16786;49.466;11.068;2022-10-29T10:25:54;13.00;;;9.20;;
29916;SDS011;16786;49.466;11.068;2022-10-29T10:28:29;20.70;;;9.70;;
29916;SDS011;16786;49.466;11.068;2022-10-29T10:33:50;26.10;;;12.88;;
29916;SDS011;16786;49.466;11.068;2022-10-29T10:36:24;25.63;;;14.20;;
29916;SDS011;16786;49.466;11.068;2022-10-29T10:38:53;20.15;;;9.20;;
29916;SDS011;16786;49.466;11.068;2022-10-29T10:41:26;14.88;;;8.50;;
29916;SDS011;16786;49.466;11.068;2022-10-29T10:43:57;20.38;;;9.52;;
29916;SDS011;16786;49.466;11.068;2022-10-29T10:46:33;14.48;;;8.27;;
29916;SDS011;16786;49.466;11.068;2022-10-29T10:51:33;15.85;;;8.48;;
29916;SDS011;16786;49.466;11.068;2022-10-29T10:54:05;18.17;;;9.32;;
29916;SDS011;16786;49.466;11.068;2022-10-29T10:59:55;23.45;;;12.30;;
29916;SDS011;16786;49.466;11.068;2022-10-29T11:02:44;23.35;;;13.45;;
29916;SDS011;16786;49.466;11.068;2022-10-29T11:10:49;14.85;;;7.25;;
29916;SDS011;16786;49.466;11.068;2022-10-29T11:13:21;17.60;;;6.70;;
29916;SDS011;16786;49.466;11.068;2022-10-29T11:21:13;11.82;;;7.28;;
29916;SDS011;16786;49.466;11.068;2022-10-29T11:29:17;12.60;;;7.13;;
29916;SDS011;16786;49.466;11.068;2022-10-29T11:42:54;13.27;;;7.90;;
29916;SDS011;16786;49.466;11.068;2022-10-29T11:45:37;15.40;;;7.28;;
29916;SDS011;16786;49.466;11.068;2022-10-29T11:51:04;14.70;;;7.22;;
29916;SDS011;16786;49.466;11.068;2022-10-29T11:56:40;14.75;;;7.30;;
29916;SDS011;16786;49.466;11.068;2022-10-29T12:10:31;14.98;;;7.45;;
29916;SDS011;16786;49.466;11.068;2022-10-29T12:13:16;13.38;;;7.78;;
29916;SDS011;16786;49.466;11.068;2022-10-29T12:18:42;13.43;;;7.38;;
29916;SDS011;16786;49.466;11.068;2022-10-29T12:21:29;14.63;;;7.53;;
29916;SDS011;16786;49.466;11.068;2022-10-29T12:24:13;16.17;;;7.57;;
29916;SDS011;16786;49.466;11.068;2022-10-29T12:27:14;13.75;;;7.90;;
29916;SDS011;16786;49.466;11.068;2022-10-29T12:35:32;13.00;;;7.22;;
29916;SDS011;16786;49.466;11.068;2022-10-29T12:38:34;14.60;;;7.45;;
29916;SDS011;16786;49.466;11.068;2022-10-29T12:41:07;15.10;;;7.38;;
29916;SDS011;16786;49.466;11.068;2022-10-29T12:44:14;13.45;;;7.53;;
29916;SDS011;16786;49.466;11.068;2022-10-29T12:49:22;12.27;;;7.57;;
29916;SDS011;16786;49.466;11.068;2022-10-29T12:52:29;14.15;;;7.22;;
29916;SDS011;16786;49.466;11.068;2022-10-29T12:55:05;13.65;;;7.70;;
29916;SDS011;16786;49.466;11.068;2022-10-29T12:57:37;12.38;;;7.47;;
29916;SDS011;16786;49.466;11.068;2022-10-29T13:02:50;13.80;;;8.00;;
29916;SDS011;16786;49.466;11.068;2022-10-29T13:15:58;15.27;;;8.98;;
29916;SDS011;16786;49.466;11.068;2022-10-29T13:18:45;13.25;;;8.35;;
29916;SDS011;16786;49.466;11.068;2022-10-29T13:24:27;16.02;;;8.43;;
29916;SDS011;16786;49.466;11.068;2022-10-29T13:29:43;17.52;;;8.02;;
29916;SDS011;16786;49.466;11.068;2022-10-29T13:42:51;15.77;;;8.77;;
29916;SDS011;16786;49.466;11.068;2022-10-29T13:45:21;14.30;;;8.27;;
29916;SDS011;16786;49.466;11.068;2022-10-29T13:47:48;20.08;;;8.18;;
29916;SDS011;16786;49.466;11.068;2022-10-29T13:50:16;14.68;;;7.95;;
29916;SDS011;16786;49.466;11.068;2022-10-29T13:52:45;12.80;;;7.90;;
29916;SDS011;16786;49.466;11.068;2022-10-29T13:55:18;13.82;;;7.97;;
29916;SDS011;16786;49.466;11.068;2022-10-29T13:57:57;15.32;;;9.90;;
29916;SDS011;16786;49.466;11.068;2022-10-29T14:00:34;21.40;;;11.07;;
29916;SDS011;16786;49.466;11.068;2022-10-29T14:03:03;22.83;;;11.25;;
29916;SDS011;16786;49.466;11.068;2022-10-29T14:05:52;12.50;;;7.55;;
29916;SDS011;16786;49.466;11.068;2022-10-29T14:11:22;17.50;;;8.35;;
29916;SDS011;16786;49.466;11.068;2022-10-29T14:13:57;17.95;;;9.70;;
29916;SDS011;16786;49.466;11.068;2022-10-29T14:16:29;19.90;;;13.43;;
29916;SDS011;16786;49.466;11.068;2022-10-29T14:19:11;17.52;;;9.95;;
29916;SDS011;16786;49.466;11.068;2022-10-29T14:21:40;14.57;;;8.52;;
29916;SDS011;16786;49.466;11.068;2022-10-29T14:24:08;12.63;;;7.50;;
29916;SDS011;16786;49.466;11.068;2022-10-29T14:26:38;13.32;;;7.40;;
29916;SDS011;16786;49.466;11.068;2022-10-29T14:29:17;18.23;;;7.82;;
29916;SDS011;16786;49.466;11.068;2022-10-29T14:31:45;14.25;;;7.70;;
29916;SDS011;16786;49.466;11.068;2022-10-29T14:34:22;13.07;;;8.13;;
29916;SDS011;16786;49.466;11.068;2022-10-29T14:36:54;19.88;;;9.07;;
29916;SDS011;16786;49.466;11.068;2022-10-29T14:39:46;13.20;;;8.60;;
29916;SDS011;16786;49.466;11.068;2022-10-29T14:42:35;16.35;;;10.55;;
29916;SDS011;16786;49.466;11.068;2022-10-29T14:45:06;17.52;;;8.10;;
29916;SDS011;16786;49.466;11.068;2022-10-29T14:47:49;14.43;;;8.93;;
29916;SDS011;16786;49.466;11.068;2022-10-29T14:50:22;13.40;;;8.13;;
29916;SDS011;16786;49.466;11.068;2022-10-29T14:52:56;17.38;;;8.63;;
29916;SDS011;16786;49.466;11.068;2022-10-29T14:55:27;14.88;;;8.27;;
29916;SDS011;16786;49.466;11.068;2022-10-29T14:58:15;12.55;;;8.40;;
29916;SDS011;16786;49.466;11.068;2022-10-29T15:03:24;18.77;;;8.32;;
29916;SDS011;16786;49.466;11.068;2022-10-29T15:06:14;11.43;;;7.95;;
29916;SDS011;16786;49.466;11.068;2022-10-29T15:08:44;12.65;;;7.45;;
29916;SDS011;16786;49.466;11.068;2022-10-29T15:14:04;17.13;;;8.18;;
29916;SDS011;16786;49.466;11.068;2022-10-29T15:16:53;14.48;;;7.28;;
29916;SDS011;16786;49.466;11.068;2022-10-29T15:19:20;19.42;;;8.02;;
29916;SDS011;16786;49.466;11.068;2022-10-29T15:21:48;12.43;;;7.25;;
29916;SDS011;16786;49.466;11.068;2022-10-29T15:24:17;16.02;;;7.60;;
29916;SDS011;16786;49.466;11.068;2022-10-29T15:26:47;17.63;;;7.50;;
29916;SDS011;16786;49.466;11.068;2022-10-29T15:29:22;10.75;;;7.35;;
29916;SDS011;16786;49.466;11.068;2022-10-29T15:31:59;20.83;;;7.63;;
29916;SDS011;16786;49.466;11.068;2022-10-29T15:34:31;16.08;;;7.57;;
29916;SDS011;16786;49.466;11.068;2022-10-29T15:40:04;16.85;;;7.60;;
29916;SDS011;16786;49.466;11.068;2022-10-29T15:42:40;13.07;;;6.95;;
29916;SDS011;16786;49.466;11.068;2022-10-29T15:45:12;13.00;;;7.47;;
29916;SDS011;16786;49.466;11.068;2022-10-29T15:47:41;15.50;;;9.02;;
29916;SDS011;16786;49.466;11.068;2022-10-29T15:50:17;19.35;;;10.15;;
29916;SDS011;16786;49.466;11.068;2022-10-29T15:52:51;17.65;;;9.25;;
29916;SDS011;16786;49.466;11.068;2022-10-29T15:55:22;16.87;;;9.00;;
29916;SDS011;16786;49.466;11.068;2022-10-29T15:57:53;15.35;;;8.48;;
29916;SDS011;16786;49.466;11.068;2022-10-29T16:00:26;18.88;;;8.27;;
29916;SDS011;16786;49.466;11.068;2022-10-29T16:02:55;13.10;;;7.32;;
29916;SDS011;16786;49.466;11.068;2022-10-29T16:05:26;17.70;;;7.55;;
29916;SDS011;16786;49.466;11.068;2022-10-29T16:07:54;23.65;;;12.10;;
29916;SDS011;16786;49.466;11.068;2022-10-29T16:10:23;17.80;;;10.98;;
29916;SDS011;16786;49.466;11.068;2022-10-29T16:12:50;14.18;;;8.75;;
29916;SDS011;16786;49.466;11.068;2022-10-29T16:15:18;14.48;;;7.30;;
29916;SDS011;16786;49.466;11.068;2022-10-29T16:17:45;25.50;;;6.90;;
29916;SDS011;16786;49.466;11.068;2022-10-29T16:20:14;14.25;;;7.45;;
29916;SDS011;16786;49.466;11.068;2022-10-29T16:22:43;13.35;;;7.32;;
29916;SDS011;16786;49.466;11.068;2022-10-29T16:25:19;18.45;;;7.90;;
29916;SDS011;16786;49.466;11.068;2022-10-29T16:27:54;13.48;;;6.97;;
29916;SDS011;16786;49.466;11.068;2022-10-29T16:30:22;14.30;;;7.05;;
29916;SDS011;16786;49.466;11.068;2022-10-29T16:32:49;18.02;;;7.50;;
29916;SDS011;16786;49.466;11.068;2022-10-29T16:35:19;17.83;;;8.25;;
29916;SDS011;16786;49.466;11.068;2022-10-29T16:37:47;17.50;;;7.55;;
29916;SDS011;16786;49.466;11.068;2022-10-29T16:40:15;18.08;;;8.40;;
29916;SDS011;16786;49.466;11.068;2022-10-29T16:42:43;13.48;;;6.95;;
29916;SDS011;16786;49.466;11.068;2022-10-29T16:45:15;15.60;;;7.35;;
29916;SDS011;16786;49.466;11.068;2022-10-29T16:47:44;15.82;;;7.82;;
29916;SDS011;16786;49.466;11.068;2022-10-29T16:50:16;14.30;;;7.15;;
29916;SDS011;16786;49.466;11.068;2022-10-29T16:52:45;18.08;;;7.30;;
29916;SDS011;16786;49.466;11.068;2022-10-29T16:55:13;13.90;;;7.05;;
29916;SDS011;16786;49.466;11.068;2022-10-29T16:57:40;14.38;;;6.70;;
29916;SDS011;16786;49.466;11.068;2022-10-29T17:00:08;14.73;;;6.95;;
29916;SDS011;16786;49.466;11.068;2022-10-29T17:02:36;20.85;;;9.98;;
29916;SDS011;16786;49.466;11.068;2022-10-29T17:05:03;20.02;;;10.82;;
29916;SDS011;16786;49.466;11.068;2022-10-29T17:07:35;25.13;;;11.65;;
29916;SDS011;16786;49.466;11.068;2022-10-29T17:10:04;17.58;;;9.32;;
29916;SDS011;16786;49.466;11.068;2022-10-29T17:12:32;16.48;;;8.10;;
29916;SDS011;16786;49.466;11.068;2022-10-29T17:15:00;17.90;;;7.75;;
29916;SDS011;16786;49.466;11.068;2022-10-29T17:17:29;17.17;;;8.18;;
29916;SDS011;16786;49.466;11.068;2022-10-29T17:19:57;16.40;;;7.38;;
29916;SDS011;16786;49.466;11.068;2022-10-29T17:22:24;20.65;;;7.57;;
29916;SDS011;16786;49.466;11.068;2022-10-29T17:24:52;19.77;;;7.75;;
29916;SDS011;16786;49.466;11.068;2022-10-29T17:27:19;18.08;;;8.50;;
29916;SDS011;16786;49.466;11.068;2022-10-29T17:29:46;17.17;;;8.45;;
29916;SDS011;16786;49.466;11.068;2022-10-29T17:32:14;14.80;;;7.35;;
29916;SDS011;16786;49.466;11.068;2022-10-29T17:34:42;17.60;;;7.97;;
29916;SDS011;16786;49.466;11.068;2022-10-29T17:37:09;20.63;;;7.88;;
29916;SDS011;16786;49.466;11.068;2022-10-29T17:39:37;16.58;;;7.40;;
29916;SDS011;16786;49.466;11.068;2022-10-29T17:42:04;19.15;;;7.60;;
29916;SDS011;16786;49.466;11.068;2022-10-29T17:44:32;14.20;;;6.80;;